sensor_id;sensor_type;location;lat;lon;timestamp;pressure;altitude;pressure_sealevel;temperature;humidity
74680;BME280;63211;48.548;2.704;2023-04-15T00:00:07;99732.16;;;18.29;59.87
74680;BME280;63211;48.548;2.704;2023-04-15T00:02:34;99732.81;;;18.36;58.99
74680;BME280;63211;48.548;2.704;2023-04-15T00:05:01;99720.69;;;18.44;58.54
74680;BME280;63211;48.548;2.704;2023-04-15T00:07:29;99722.13;;;18.51;58.12
74680;BME280;63211;48.548;2.704;2023-04-15T00:09:56;99716.78;;;18.57;57.93
74680;BME280;63211;48.548;2.704;2023-04-15T00:12:22;99715.94;;;18.56;57.45
74680;BME280;63211;48.548;2.704;2023-04-15T00:14:49;99715.84;;;18.51;58.14
74680;BME280;63211;48.548;2.704;2023-04-15T00:17:16;99714.97;;;18.45;59.57
74680;BME280;63211;48.548;2.704;2023-04-15T00:19:43;99711.94;;;18.42;58.93
74680;BME280;63211;48.548;2.704;2023-04-15T00:22:10;99697.38;;;18.36;59.60
74680;BME280;63211;48.548;2.704;2023-04-15T00:24:38;99691.13;;;18.36;58.90
74680;BME280;63211;48.548;2.704;2023-04-15T00:27:05;99703.41;;;18.38;59.23
74680;BME280;63211;48.548;2.704;2023-04-15T00:29:33;99686.75;;;18.35;58.64
74680;BME280;63211;48.548;2.704;2023-04-15T00:32:00;99693.84;;;18.36;59.32
74680;BME280;63211;48.548;2.704;2023-04-15T00:34:26;99684.75;;;18.30;59.57
74680;BME280;63211;48.548;2.704;2023-04-15T00:36:53;99683.44;;;18.33;59.78
74680;BME280;63211;48.548;2.704;2023-04-15T00:39:21;99682.03;;;18.30;59.65
74680;BME280;63211;48.548;2.704;2023-04-15T00:41:49;99671.13;;;18.30;59.94
74680;BME280;63211;48.548;2.704;2023-04-15T00:44:15;99672.78;;;18.31;60.26
74680;BME280;63211;48.548;2.704;2023-04-15T00:46:43;99658.34;;;18.31;60.58
74680;BME280;63211;48.548;2.704;2023-04-15T00:49:10;99653.13;;;18.29;60.30
74680;BME280;63211;48.548;2.704;2023-04-15T00:51:38;99652.34;;;18.29;60.64
74680;BME280;63211;48.548;2.704;2023-04-15T00:54:05;99629.13;;;18.09;60.98
74680;BME280;63211;48.548;2.704;2023-04-15T00:56:34;99653.97;;;18.30;60.82
74680;BME280;63211;48.548;2.704;2023-04-15T00:59:02;99661.25;;;18.24;61.21
74680;BME280;63211;48.548;2.704;2023-04-15T01:01:32;99655.06;;;18.29;61.05
74680;BME280;63211;48.548;2.704;2023-04-15T01:03:59;99657.50;;;18.30;60.98
74680;BME280;63211;48.548;2.704;2023-04-15T01:06:26;99657.25;;;18.32;60.62
74680;BME280;63211;48.548;2.704;2023-04-15T01:08:53;99651.88;;;18.37;59.56
74680;BME280;63211;48.548;2.704;2023-04-15T01:11:22;99655.84;;;18.46;58.64
74680;BME280;63211;48.548;2.704;2023-04-15T01:13:49;99651.59;;;18.55;58.04
74680;BME280;63211;48.548;2.704;2023-04-15T01:16:18;99648.22;;;18.65;57.62
74680;BME280;63211;48.548;2.704;2023-04-15T01:18:45;99651.03;;;18.70;57.38
74680;BME280;63211;48.548;2.704;2023-04-15T01:21:11;99643.09;;;18.68;57.10
74680;BME280;63211;48.548;2.704;2023-04-15T01:23:38;99647.06;;;18.61;57.69
74680;BME280;63211;48.548;2.704;2023-04-15T01:26:06;99643.66;;;18.53;58.20
74680;BME280;63211;48.548;2.704;2023-04-15T01:28:33;99642.56;;;18.49;57.93
74680;BME280;63211;48.548;2.704;2023-04-15T01:31:07;99633.47;;;18.44;58.26
74680;BME280;63211;48.548;2.704;2023-04-15T01:33:34;99637.03;;;18.44;58.36
74680;BME280;63211;48.548;2.704;2023-04-15T01:36:01;99640.00;;;18.43;58.58
74680;BME280;63211;48.548;2.704;2023-04-15T01:38:28;99638.09;;;18.43;58.58
74680;BME280;63211;48.548;2.704;2023-04-15T01:40:55;99612.25;;;18.29;59.40
74680;BME280;63211;48.548;2.704;2023-04-15T01:43:23;99635.88;;;18.40;59.28
74680;BME280;63211;48.548;2.704;2023-04-15T01:45:50;99621.66;;;18.38;59.57
74680;BME280;63211;48.548;2.704;2023-04-15T01:48:17;99634.72;;;18.36;59.26
74680;BME280;63211;48.548;2.704;2023-04-15T01:50:44;99625.38;;;18.32;59.22
74680;BME280;63211;48.548;2.704;2023-04-15T01:53:10;99577.84;;;18.01;59.10
74680;BME280;63211;48.548;2.704;2023-04-15T01:55:37;99625.72;;;18.36;59.76
74680;BME280;63211;48.548;2.704;2023-04-15T01:58:04;99620.25;;;18.36;60.12
74680;BME280;63211;48.548;2.704;2023-04-15T02:00:32;99620.00;;;18.37;60.18
74680;BME280;63211;48.548;2.704;2023-04-15T02:02:59;99620.00;;;18.37;60.21
74680;BME280;63211;48.548;2.704;2023-04-15T02:05:26;99622.16;;;18.35;59.97
74680;BME280;63211;48.548;2.704;2023-04-15T02:07:53;99616.47;;;18.37;60.01
74680;BME280;63211;48.548;2.704;2023-04-15T02:10:19;99620.25;;;18.36;60.03
74680;BME280;63211;48.548;2.704;2023-04-15T02:12:46;99613.41;;;18.33;59.97
74680;BME280;63211;48.548;2.704;2023-04-15T02:15:13;99612.91;;;18.36;59.34
74680;BME280;63211;48.548;2.704;2023-04-15T02:17:41;99624.47;;;18.43;58.44
74680;BME280;63211;48.548;2.704;2023-04-15T02:20:10;99631.13;;;18.52;57.61
74680;BME280;63211;48.548;2.704;2023-04-15T02:22:37;99617.41;;;18.64;57.17
74680;BME280;63211;48.548;2.704;2023-04-15T02:25:04;99618.03;;;18.71;56.71
74680;BME280;63211;48.548;2.704;2023-04-15T02:27:31;99618.59;;;18.73;56.74
74680;BME280;63211;48.548;2.704;2023-04-15T02:29:58;99625.19;;;18.77;56.27
74680;BME280;63211;48.548;2.704;2023-04-15T02:32:24;99627.03;;;18.72;56.72
74680;BME280;63211;48.548;2.704;2023-04-15T02:34:52;99620.97;;;18.65;57.04
74680;BME280;63211;48.548;2.704;2023-04-15T02:37:19;99613.94;;;18.52;57.36
74680;BME280;63211;48.548;2.704;2023-04-15T02:39:46;99626.00;;;18.56;57.87
74680;BME280;63211;48.548;2.704;2023-04-15T02:42:12;99631.13;;;18.52;58.14
74680;BME280;63211;48.548;2.704;2023-04-15T02:44:39;99631.91;;;18.48;57.87
74680;BME280;63211;48.548;2.704;2023-04-15T02:47:05;99629.41;;;18.46;57.93
74680;BME280;63211;48.548;2.704;2023-04-15T02:49:32;99632.97;;;18.47;58.85
74680;BME280;63211;48.548;2.704;2023-04-15T02:52:00;99641.97;;;18.47;59.34
74680;BME280;63211;48.548;2.704;2023-04-15T02:54:27;99636.78;;;18.46;59.07
74680;BME280;63211;48.548;2.704;2023-04-15T02:56:54;99650.41;;;18.46;59.84
74680;BME280;63211;48.548;2.704;2023-04-15T02:59:21;99657.75;;;18.45;60.48
74680;BME280;63211;48.548;2.704;2023-04-15T03:01:47;99661.78;;;18.43;59.90
74680;BME280;63211;48.548;2.704;2023-04-15T03:04:14;99653.03;;;18.41;59.79
74680;BME280;63211;48.548;2.704;2023-04-15T03:06:40;99661.72;;;18.38;59.79
74680;BME280;63211;48.548;2.704;2023-04-15T03:09:08;99654.63;;;18.37;59.95
74680;BME280;63211;48.548;2.704;2023-04-15T03:11:35;99660.88;;;18.37;59.80
74680;BME280;63211;48.548;2.704;2023-04-15T03:14:04;99664.44;;;18.38;60.14
74680;BME280;63211;48.548;2.704;2023-04-15T03:16:31;99664.69;;;18.36;60.03
74680;BME280;63211;48.548;2.704;2023-04-15T03:18:58;99667.41;;;18.36;60.22
74680;BME280;63211;48.548;2.704;2023-04-15T03:21:24;99683.53;;;18.38;60.23
74680;BME280;63211;48.548;2.704;2023-04-15T03:23:51;99686.56;;;18.41;59.64
74680;BME280;63211;48.548;2.704;2023-04-15T03:26:26;99677.97;;;18.49;58.11
74680;BME280;63211;48.548;2.704;2023-04-15T03:28:54;99681.91;;;18.59;57.59
74680;BME280;63211;48.548;2.704;2023-04-15T03:31:20;99690.53;;;18.67;56.97
74680;BME280;63211;48.548;2.704;2023-04-15T03:33:47;99696.59;;;18.74;56.51
74680;BME280;63211;48.548;2.704;2023-04-15T03:36:14;99699.31;;;18.74;56.08
74680;BME280;63211;48.548;2.704;2023-04-15T03:38:41;99697.75;;;18.78;55.99
74680;BME280;63211;48.548;2.704;2023-04-15T03:41:07;99707.75;;;18.73;56.01
74680;BME280;63211;48.548;2.704;2023-04-15T03:43:36;99702.50;;;18.66;56.54
74680;BME280;63211;48.548;2.704;2023-04-15T03:46:02;99712.84;;;18.64;56.67
74680;BME280;63211;48.548;2.704;2023-04-15T03:48:29;99709.53;;;18.62;56.54
74680;BME280;63211;48.548;2.704;2023-04-15T03:50:55;99717.72;;;18.62;56.89
74680;BME280;63211;48.548;2.704;2023-04-15T03:53:22;99722.59;;;18.60;57.36
74680;BME280;63211;48.548;2.704;2023-04-15T03:55:49;99731.22;;;18.57;57.99
74680;BME280;63211;48.548;2.704;2023-04-15T03:58:15;99744.28;;;18.55;57.53
74680;BME280;63211;48.548;2.704;2023-04-15T04:00:44;99739.31;;;18.52;58.11
74680;BME280;63211;48.548;2.704;2023-04-15T04:03:10;99745.84;;;18.51;57.85
74680;BME280;63211;48.548;2.704;2023-04-15T04:05:37;99751.28;;;18.51;57.66
74680;BME280;63211;48.548;2.704;2023-04-15T04:08:05;99744.19;;;18.50;58.29
74680;BME280;63211;48.548;2.704;2023-04-15T04:10:32;99749.41;;;18.51;58.62
74680;BME280;63211;48.548;2.704;2023-04-15T04:12:59;99753.72;;;18.47;59.19
74680;BME280;63211;48.548;2.704;2023-04-15T04:15:25;99762.47;;;18.49;58.60
74680;BME280;63211;48.548;2.704;2023-04-15T04:17:53;99762.72;;;18.48;58.91
74680;BME280;63211;48.548;2.704;2023-04-15T04:20:20;99769.50;;;18.45;59.70
74680;BME280;63211;48.548;2.704;2023-04-15T04:22:46;99774.38;;;18.43;59.43
74680;BME280;63211;48.548;2.704;2023-04-15T04:25:13;99775.69;;;18.41;58.96
74680;BME280;63211;48.548;2.704;2023-04-15T04:27:40;99782.44;;;18.38;59.39
74680;BME280;63211;48.548;2.704;2023-04-15T04:30:07;99788.16;;;18.37;59.18
74680;BME280;63211;48.548;2.704;2023-04-15T04:32:34;99795.00;;;18.39;59.32
74680;BME280;63211;48.548;2.704;2023-04-15T04:35:02;99794.03;;;18.45;58.89
74680;BME280;63211;48.548;2.704;2023-04-15T04:37:29;99797.13;;;18.54;57.76
74680;BME280;63211;48.548;2.704;2023-04-15T04:39:55;99797.09;;;18.66;56.28
74680;BME280;63211;48.548;2.704;2023-04-15T04:42:22;99798.56;;;18.73;56.22
74680;BME280;63211;48.548;2.704;2023-04-15T04:44:49;99806.00;;;18.78;55.86
74680;BME280;63211;48.548;2.704;2023-04-15T04:47:15;99805.50;;;18.81;55.58
74680;BME280;63211;48.548;2.704;2023-04-15T04:49:42;99805.25;;;18.82;55.61
74680;BME280;63211;48.548;2.704;2023-04-15T04:52:10;99802.34;;;18.72;55.45
74680;BME280;63211;48.548;2.704;2023-04-15T04:54:37;99813.22;;;18.67;55.62
74680;BME280;63211;48.548;2.704;2023-04-15T04:57:03;99816.19;;;18.66;55.89
74680;BME280;63211;48.548;2.704;2023-04-15T04:59:32;99819.16;;;18.64;55.95
74680;BME280;63211;48.548;2.704;2023-04-15T05:01:58;99818.56;;;18.62;56.08
74680;BME280;63211;48.548;2.704;2023-04-15T05:04:25;99832.47;;;18.61;56.13
74680;BME280;63211;48.548;2.704;2023-04-15T05:06:52;99824.72;;;18.58;57.02
74680;BME280;63211;48.548;2.704;2023-04-15T05:09:20;99826.38;;;18.59;57.30
74680;BME280;63211;48.548;2.704;2023-04-15T05:11:46;99839.19;;;18.58;57.37
74680;BME280;63211;48.548;2.704;2023-04-15T05:14:13;99843.00;;;18.57;57.41
74680;BME280;63211;48.548;2.704;2023-04-15T05:16:39;99848.44;;;18.57;57.37
74680;BME280;63211;48.548;2.704;2023-04-15T05:19:06;99856.03;;;18.55;57.81
74680;BME280;63211;48.548;2.704;2023-04-15T05:21:33;99869.91;;;18.53;57.63
74680;BME280;63211;48.548;2.704;2023-04-15T05:23:59;99867.69;;;18.50;57.90
74680;BME280;63211;48.548;2.704;2023-04-15T05:26:27;99869.34;;;18.51;57.65
74680;BME280;63211;48.548;2.704;2023-04-15T05:28:54;99877.75;;;18.50;58.00
74680;BME280;63211;48.548;2.704;2023-04-15T05:31:20;99882.13;;;18.51;57.72
74680;BME280;63211;48.548;2.704;2023-04-15T05:33:47;99874.78;;;18.51;58.15
74680;BME280;63211;48.548;2.704;2023-04-15T05:36:13;99882.13;;;18.51;58.13
74680;BME280;63211;48.548;2.704;2023-04-15T05:38:40;99880.47;;;18.50;58.15
74680;BME280;63211;48.548;2.704;2023-04-15T05:41:07;99890.31;;;18.51;57.89
74680;BME280;63211;48.548;2.704;2023-04-15T05:43:35;99904.53;;;18.53;57.79
74680;BME280;63211;48.548;2.704;2023-04-15T05:46:02;99893.13;;;18.56;57.10
74680;BME280;63211;48.548;2.704;2023-04-15T05:48:28;99894.09;;;18.62;56.28
74680;BME280;63211;48.548;2.704;2023-04-15T05:50:55;99900.28;;;18.74;55.64
74680;BME280;63211;48.548;2.704;2023-04-15T05:53:22;99904.16;;;18.78;55.65
74680;BME280;63211;48.548;2.704;2023-04-15T05:55:48;99909.13;;;18.81;55.30
74680;BME280;63211;48.548;2.704;2023-04-15T05:58:15;99917.06;;;18.82;55.21
74680;BME280;63211;48.548;2.704;2023-04-15T06:00:43;99924.44;;;18.82;55.02
74680;BME280;63211;48.548;2.704;2023-04-15T06:03:10;99919.13;;;18.75;54.83
74680;BME280;63211;48.548;2.704;2023-04-15T06:05:37;99928.63;;;18.73;54.85
74680;BME280;63211;48.548;2.704;2023-04-15T06:08:05;99930.22;;;18.69;54.77
74680;BME280;63211;48.548;2.704;2023-04-15T06:10:33;99932.94;;;18.69;54.89
74680;BME280;63211;48.548;2.704;2023-04-15T06:13:00;99937.81;;;18.67;55.66
74680;BME280;63211;48.548;2.704;2023-04-15T06:15:27;99947.31;;;18.64;55.95
74680;BME280;63211;48.548;2.704;2023-04-15T06:17:56;99951.34;;;18.62;56.33
74680;BME280;63211;48.548;2.704;2023-04-15T06:20:22;99960.84;;;18.59;56.45
74680;BME280;63211;48.548;2.704;2023-04-15T06:22:49;99966.28;;;18.59;56.14
74680;BME280;63211;48.548;2.704;2023-04-15T06:25:16;99970.88;;;18.59;56.44
74680;BME280;63211;48.548;2.704;2023-04-15T06:27:43;99973.59;;;18.59;56.28
74680;BME280;63211;48.548;2.704;2023-04-15T06:30:10;99983.69;;;18.58;56.71
74680;BME280;63211;48.548;2.704;2023-04-15T06:32:37;99989.13;;;18.58;56.68
74680;BME280;63211;48.548;2.704;2023-04-15T06:35:05;99996.47;;;18.58;56.82
74680;BME280;63211;48.548;2.704;2023-04-15T06:37:32;99997.31;;;18.58;57.01
74680;BME280;63211;48.548;2.704;2023-04-15T06:39:58;99998.38;;;18.57;57.28
74680;BME280;63211;48.548;2.704;2023-04-15T06:42:25;100002.19;;;18.56;57.17
74680;BME280;63211;48.548;2.704;2023-04-15T06:44:52;100009.53;;;18.55;56.86
74680;BME280;63211;48.548;2.704;2023-04-15T06:47:18;100015.22;;;18.54;56.98
74680;BME280;63211;48.548;2.704;2023-04-15T06:49:45;100011.06;;;18.51;57.06
74680;BME280;63211;48.548;2.704;2023-04-15T06:52:13;100017.34;;;18.52;57.41
74680;BME280;63211;48.548;2.704;2023-04-15T06:54:40;100025.06;;;18.55;56.67
74680;BME280;63211;48.548;2.704;2023-04-15T06:57:07;100031.56;;;18.66;55.96
74680;BME280;63211;48.548;2.704;2023-04-15T06:59:34;100034.72;;;18.74;55.17
74680;BME280;63211;48.548;2.704;2023-04-15T07:02:01;100034.81;;;18.79;54.92
74680;BME280;63211;48.548;2.704;2023-04-15T07:04:27;100032.44;;;18.83;55.05
74680;BME280;63211;48.548;2.704;2023-04-15T07:06:54;100027.63;;;18.73;55.07
74680;BME280;63211;48.548;2.704;2023-04-15T07:09:23;100047.00;;;18.88;54.78
74680;BME280;63211;48.548;2.704;2023-04-15T07:11:49;100051.88;;;18.86;54.37
74680;BME280;63211;48.548;2.704;2023-04-15T07:14:17;100064.81;;;18.79;54.19
74680;BME280;63211;48.548;2.704;2023-04-15T07:16:43;100060.97;;;18.64;55.45
74680;BME280;63211;48.548;2.704;2023-04-15T07:19:10;100054.13;;;18.61;55.07
74680;BME280;63211;48.548;2.704;2023-04-15T07:21:37;100067.00;;;18.54;55.35
74680;BME280;63211;48.548;2.704;2023-04-15T07:24:04;100068.91;;;18.53;55.26
74680;BME280;63211;48.548;2.704;2023-04-15T07:26:32;100086.34;;;18.52;56.30
74680;BME280;63211;48.548;2.704;2023-04-15T07:28:58;100081.72;;;18.53;56.08
74680;BME280;63211;48.548;2.704;2023-04-15T07:31:25;100090.97;;;18.52;55.93
74680;BME280;63211;48.548;2.704;2023-04-15T07:33:52;100093.78;;;18.57;55.89
74680;BME280;63211;48.548;2.704;2023-04-15T07:36:18;100100.22;;;18.63;55.83
74680;BME280;63211;48.548;2.704;2023-04-15T07:38:45;100108.41;;;18.63;55.26
74680;BME280;63211;48.548;2.704;2023-04-15T07:41:12;100101.53;;;18.60;55.41
74680;BME280;63211;48.548;2.704;2023-04-15T07:43:40;100109.72;;;18.60;55.99
74680;BME280;63211;48.548;2.704;2023-04-15T07:46:07;100116.81;;;18.61;55.69
74680;BME280;63211;48.548;2.704;2023-04-15T07:48:33;100113.50;;;18.59;55.62
74680;BME280;63211;48.548;2.704;2023-04-15T07:51:00;100127.13;;;18.59;55.99
74680;BME280;63211;48.548;2.704;2023-04-15T07:53:27;100130.91;;;18.58;55.88
74680;BME280;63211;48.548;2.704;2023-04-15T07:55:54;100132.19;;;18.55;56.05
74680;BME280;63211;48.548;2.704;2023-04-15T07:58:21;100142.03;;;18.57;56.28
74680;BME280;63211;48.548;2.704;2023-04-15T08:00:49;100146.06;;;18.54;55.70
74680;BME280;63211;48.548;2.704;2023-04-15T08:03:16;100147.97;;;18.53;56.32
74680;BME280;63211;48.548;2.704;2023-04-15T08:05:43;100156.75;;;18.55;55.68
74680;BME280;63211;48.548;2.704;2023-04-15T08:08:11;100151.44;;;18.61;54.92
74680;BME280;63211;48.548;2.704;2023-04-15T08:10:38;100167.06;;;18.65;54.18
74680;BME280;63211;48.548;2.704;2023-04-15T08:13:05;100164.78;;;18.74;53.91
74680;BME280;63211;48.548;2.704;2023-04-15T08:15:32;100176.06;;;18.77;53.29
74680;BME280;63211;48.548;2.704;2023-04-15T08:17:59;100181.63;;;18.82;53.66
74680;BME280;63211;48.548;2.704;2023-04-15T08:20:26;100192.78;;;18.81;53.54
74680;BME280;63211;48.548;2.704;2023-04-15T08:22:53;100191.22;;;18.73;53.33
74680;BME280;63211;48.548;2.704;2023-04-15T08:25:19;100196.38;;;18.70;54.64
74680;BME280;63211;48.548;2.704;2023-04-15T08:27:46;100200.38;;;18.67;54.67
74680;BME280;63211;48.548;2.704;2023-04-15T08:30:13;100211.31;;;18.67;54.28
74680;BME280;63211;48.548;2.704;2023-04-15T08:32:41;100217.81;;;18.66;54.75
74680;BME280;63211;48.548;2.704;2023-04-15T08:35:09;100221.63;;;18.65;54.26
74680;BME280;63211;48.548;2.704;2023-04-15T08:37:36;100234.16;;;18.90;53.30
74680;BME280;63211;48.548;2.704;2023-04-15T08:40:03;100236.13;;;18.94;54.05
74680;BME280;63211;48.548;2.704;2023-04-15T08:42:30;100238.59;;;19.07;60.15
74680;BME280;63211;48.548;2.704;2023-04-15T08:44:58;100247.00;;;19.17;60.75
74680;BME280;63211;48.548;2.704;2023-04-15T08:47:29;100243.53;;;19.22;62.30
74680;BME280;63211;48.548;2.704;2023-04-15T08:49:56;100254.91;;;19.31;65.10
74680;BME280;63211;48.548;2.704;2023-04-15T08:52:25;100254.81;;;19.26;60.49
74680;BME280;63211;48.548;2.704;2023-04-15T08:54:55;100248.88;;;19.29;61.53
74680;BME280;63211;48.548;2.704;2023-04-15T08:57:22;100261.09;;;19.26;59.61
74680;BME280;63211;48.548;2.704;2023-04-15T08:59:50;100270.84;;;19.22;58.32
74680;BME280;63211;48.548;2.704;2023-04-15T09:02:17;100278.66;;;19.18;58.00
74680;BME280;63211;48.548;2.704;2023-04-15T09:04:43;100285.91;;;19.13;57.65
74680;BME280;63211;48.548;2.704;2023-04-15T09:07:10;100294.25;;;19.06;57.22
74680;BME280;63211;48.548;2.704;2023-04-15T09:09:38;100302.06;;;19.03;57.17
74680;BME280;63211;48.548;2.704;2023-04-15T09:12:06;100300.06;;;18.98;56.94
74680;BME280;63211;48.548;2.704;2023-04-15T09:14:33;100301.13;;;18.97;56.98
74680;BME280;63211;48.548;2.704;2023-04-15T09:17:01;100306.22;;;18.94;56.80
74680;BME280;63211;48.548;2.704;2023-04-15T09:19:28;100311.91;;;18.92;56.55
74680;BME280;63211;48.548;2.704;2023-04-15T09:21:57;100321.75;;;18.93;56.72
74680;BME280;63211;48.548;2.704;2023-04-15T09:24:24;100269.13;;;18.58;56.46
74680;BME280;63211;48.548;2.704;2023-04-15T09:26:57;100328.66;;;18.84;56.48
74680;BME280;63211;48.548;2.704;2023-04-15T09:29:24;100313.03;;;18.68;56.20
74680;BME280;63211;48.548;2.704;2023-04-15T09:31:51;100336.72;;;18.79;55.92
74680;BME280;63211;48.548;2.704;2023-04-15T09:34:18;100338.84;;;18.77;55.35
74680;BME280;63211;48.548;2.704;2023-04-15T09:36:52;100358.53;;;18.79;55.51
74680;BME280;63211;48.548;2.704;2023-04-15T09:39:20;100356.88;;;18.78;54.66
74680;BME280;63211;48.548;2.704;2023-04-15T09:41:46;100359.38;;;18.79;54.21
74680;BME280;63211;48.548;2.704;2023-04-15T09:44:24;100374.66;;;18.80;54.41
74680;BME280;63211;48.548;2.704;2023-04-15T09:46:51;100378.22;;;18.81;54.14
74680;BME280;63211;48.548;2.704;2023-04-15T09:49:17;100380.34;;;18.79;53.51
74680;BME280;63211;48.548;2.704;2023-04-15T09:51:45;100389.13;;;18.81;53.96
74680;BME280;63211;48.548;2.704;2023-04-15T09:54:18;100398.84;;;18.77;54.04
74680;BME280;63211;48.548;2.704;2023-04-15T09:56:44;100402.41;;;18.77;53.74
74680;BME280;63211;48.548;2.704;2023-04-15T09:59:11;100398.03;;;18.76;54.33
74680;BME280;63211;48.548;2.704;2023-04-15T10:01:40;100413.31;;;18.77;54.91
74680;BME280;63211;48.548;2.704;2023-04-15T10:04:07;100420.66;;;18.77;54.80
74680;BME280;63211;48.548;2.704;2023-04-15T10:06:35;100425.53;;;18.75;54.91
74680;BME280;63211;48.548;2.704;2023-04-15T10:09:02;100435.59;;;18.74;54.88
74680;BME280;63211;48.548;2.704;2023-04-15T10:11:29;100441.91;;;18.75;54.60
74680;BME280;63211;48.548;2.704;2023-04-15T10:13:56;100442.13;;;18.73;54.74
74680;BME280;63211;48.548;2.704;2023-04-15T10:16:26;100446.97;;;18.71;54.93
74680;BME280;63211;48.548;2.704;2023-04-15T10:18:55;100445.56;;;18.69;54.78
74680;BME280;63211;48.548;2.704;2023-04-15T10:21:23;100452.09;;;18.68;54.44
74680;BME280;63211;48.548;2.704;2023-04-15T10:23:50;100452.78;;;18.63;54.24
74680;BME280;63211;48.548;2.704;2023-04-15T10:26:17;100457.19;;;18.64;54.38
74680;BME280;63211;48.548;2.704;2023-04-15T10:28:43;100460.13;;;18.63;53.97
74680;BME280;63211;48.548;2.704;2023-04-15T10:31:11;100463.09;;;18.61;53.85
74680;BME280;63211;48.548;2.704;2023-04-15T10:33:39;100475.91;;;18.61;53.66
74680;BME280;63211;48.548;2.704;2023-04-15T10:36:08;100480.28;;;18.62;53.96
74680;BME280;63211;48.548;2.704;2023-04-15T10:38:37;100478.38;;;18.62;53.69
74680;BME280;63211;48.548;2.704;2023-04-15T10:41:15;100489.31;;;18.74;53.34
74680;BME280;63211;48.548;2.704;2023-04-15T10:43:47;100488.63;;;18.78;53.56
74680;BME280;63211;48.548;2.704;2023-04-15T10:46:17;100502.88;;;18.80;53.57
74680;BME280;63211;48.548;2.704;2023-04-15T10:48:48;100500.84;;;18.76;53.96
74680;BME280;63211;48.548;2.704;2023-04-15T10:51:25;100506.41;;;18.69;53.99
74680;BME280;63211;48.548;2.704;2023-04-15T10:53:55;100490.66;;;18.53;54.38
74680;BME280;63211;48.548;2.704;2023-04-15T10:56:22;100506.13;;;18.59;54.01
74680;BME280;63211;48.548;2.704;2023-04-15T10:58:48;100514.91;;;18.61;53.59
74680;BME280;63211;48.548;2.704;2023-04-15T11:01:15;100521.19;;;18.62;54.05
74680;BME280;63211;48.548;2.704;2023-04-15T11:03:42;100525.00;;;18.72;52.97
74680;BME280;63211;48.548;2.704;2023-04-15T11:06:10;100527.50;;;18.74;55.04
74680;BME280;63211;48.548;2.704;2023-04-15T11:08:55;100519.91;;;18.76;55.08
74680;BME280;63211;48.548;2.704;2023-04-15T11:14:29;100529.16;;;18.75;58.97
74680;BME280;63211;48.548;2.704;2023-04-15T11:16:55;100518.69;;;18.60;58.35
74680;BME280;63211;48.548;2.704;2023-04-15T11:19:22;100535.34;;;18.70;59.42
74680;BME280;63211;48.548;2.704;2023-04-15T11:21:48;100546.09;;;18.65;58.48
74680;BME280;63211;48.548;2.704;2023-04-15T11:24:24;100555.81;;;18.61;57.07
74680;BME280;63211;48.548;2.704;2023-04-15T11:26:56;100564.22;;;18.60;57.67
74680;BME280;63211;48.548;2.704;2023-04-15T11:29:28;100564.84;;;18.55;57.58
74680;BME280;63211;48.548;2.704;2023-04-15T11:32:03;100567.44;;;18.50;57.10
74680;BME280;63211;48.548;2.704;2023-04-15T11:34:31;100569.59;;;18.48;57.04
74680;BME280;63211;48.548;2.704;2023-04-15T11:36:57;100577.75;;;18.48;57.64
74680;BME280;63211;48.548;2.704;2023-04-15T11:39:28;100578.13;;;18.51;57.67
74680;BME280;63211;48.548;2.704;2023-04-15T11:41:54;100590.34;;;18.49;57.53
74680;BME280;63211;48.548;2.704;2023-04-15T11:44:21;100583.22;;;18.48;57.91
74680;BME280;63211;48.548;2.704;2023-04-15T11:46:48;100580.50;;;18.48;57.71
74680;BME280;63211;48.548;2.704;2023-04-15T11:49:25;100587.47;;;18.44;58.33
74680;BME280;63211;48.548;2.704;2023-04-15T11:51:52;100586.00;;;18.41;57.80
74680;BME280;63211;48.548;2.704;2023-04-15T11:54:18;100596.75;;;18.36;58.31
74680;BME280;63211;48.548;2.704;2023-04-15T11:56:50;100598.50;;;18.31;58.39
74680;BME280;63211;48.548;2.704;2023-04-15T11:59:19;100601.09;;;18.26;57.92
74680;BME280;63211;48.548;2.704;2023-04-15T12:01:45;100619.94;;;18.27;58.74
74680;BME280;63211;48.548;2.704;2023-04-15T12:04:13;100616.28;;;18.33;58.60
74680;BME280;63211;48.548;2.704;2023-04-15T12:06:40;100591.31;;;18.18;58.50
74680;BME280;63211;48.548;2.704;2023-04-15T12:09:08;100619.13;;;18.45;57.56
74680;BME280;63211;48.548;2.704;2023-04-15T12:11:40;100629.69;;;18.53;57.41
74680;BME280;63211;48.548;2.704;2023-04-15T12:14:15;100642.22;;;18.61;57.00
74680;BME280;63211;48.548;2.704;2023-04-15T12:16:43;100636.09;;;18.65;56.92
74680;BME280;63211;48.548;2.704;2023-04-15T12:19:12;100643.22;;;18.66;57.28
74680;BME280;63211;48.548;2.704;2023-04-15T12:21:40;100649.72;;;18.65;57.58
74680;BME280;63211;48.548;2.704;2023-04-15T12:24:08;100658.13;;;18.64;58.59
74680;BME280;63211;48.548;2.704;2023-04-15T12:26:37;100604.19;;;18.29;58.98
74680;BME280;63211;48.548;2.704;2023-04-15T12:29:06;100673.47;;;18.58;58.95
74680;BME280;63211;48.548;2.704;2023-04-15T12:31:35;100672.69;;;18.51;58.40
74680;BME280;63211;48.548;2.704;2023-04-15T12:34:02;100683.88;;;18.49;59.74
74680;BME280;63211;48.548;2.704;2023-04-15T12:36:29;100690.81;;;18.45;59.53
74680;BME280;63211;48.548;2.704;2023-04-15T12:39:00;100687.09;;;18.40;59.32
74680;BME280;63211;48.548;2.704;2023-04-15T12:41:27;100698.00;;;18.40;60.91
74680;BME280;63211;48.548;2.704;2023-04-15T12:43:53;100692.56;;;18.40;60.04
74680;BME280;63211;48.548;2.704;2023-04-15T12:46:20;100692.31;;;18.41;59.49
74680;BME280;63211;48.548;2.704;2023-04-15T12:48:48;100701.34;;;18.42;59.11
74680;BME280;63211;48.548;2.704;2023-04-15T12:51:15;100705.72;;;18.43;59.54
74680;BME280;63211;48.548;2.704;2023-04-15T12:53:42;100703.84;;;18.43;60.04
74680;BME280;63211;48.548;2.704;2023-04-15T12:56:08;100713.47;;;18.46;59.69
74680;BME280;63211;48.548;2.704;2023-04-15T12:58:35;100718.31;;;18.44;59.52